createdAt,value
2019-03-25T00:00:30.701Z,70.65
2019-03-25T00:02:58.737Z,70.84
2019-03-25T00:05:26.972Z,70.89
2019-03-25T00:07:54.989Z,71.16
2019-03-25T00:10:22.997Z,71.38
2019-03-25T00:12:51.032Z,71.44
2019-03-25T00:15:19.076Z,71.35
2019-03-25T00:17:47.182Z,71.33
2019-03-25T00:20:15.312Z,71.46
2019-03-25T00:22:43.433Z,71.47
2019-03-25T00:25:11.477Z,71.46
2019-03-25T00:27:39.436Z,71.26
2019-03-25T00:30:07.742Z,71.04
2019-03-25T00:32:35.713Z,70.91
2019-03-25T00:35:04.048Z,70.58
2019-03-25T00:37:31.977Z,70.41
2019-03-25T00:40:00.051Z,70.24
2019-03-25T00:42:29.350Z,70.10
2019-03-25T00:44:57.431Z,70.15
2019-03-25T00:47:25.498Z,69.93
2019-03-25T00:49:53.606Z,70.17
2019-03-25T00:52:21.685Z,69.96
2019-03-25T00:54:50.421Z,69.86
2019-03-25T00:57:18.632Z,69.52
2019-03-25T00:59:48.877Z,69.65
2019-03-25T01:02:16.656Z,69.60
2019-03-25T01:04:44.771Z,69.68
2019-03-25T01:07:12.707Z,69.75
2019-03-25T01:09:40.781Z,69.68
2019-03-25T01:12:09.531Z,69.75
2019-03-25T01:14:37.637Z,69.55
2019-03-25T01:17:15.361Z,69.39
2019-03-25T01:19:43.566Z,69.18
2019-03-25T01:22:11.746Z,69.18
2019-03-25T01:24:40.187Z,69.09
2019-03-25T01:27:08.267Z,68.83
2019-03-25T01:29:36.291Z,68.81
2019-03-25T01:32:04.382Z,68.78
2019-03-25T01:34:34.551Z,68.74
2019-03-25T01:37:02.561Z,68.66
2019-03-25T01:39:30.716Z,68.51
2019-03-25T01:41:58.781Z,68.67
2019-03-25T01:44:26.881Z,68.78
2019-03-25T01:46:54.996Z,68.69
2019-03-25T01:49:23.456Z,68.59
2019-03-25T01:51:51.491Z,68.50
2019-03-25T01:54:27.847Z,68.66
2019-03-25T01:56:55.921Z,68.80
2019-03-25T01:59:24.029Z,68.84
2019-03-25T02:01:54.717Z,68.98
2019-03-25T02:04:22.711Z,68.69
2019-03-25T02:06:50.669Z,69.04
2019-03-25T02:09:37.378Z,70.02
2019-03-25T02:12:05.560Z,70.07
2019-03-25T02:14:33.968Z,70.39
2019-03-25T02:17:01.952Z,70.78
2019-03-25T02:19:30.054Z,71.15
2019-03-25T02:22:01.302Z,70.94
2019-03-25T02:24:29.398Z,71.00
2019-03-25T02:26:57.532Z,71.99
2019-03-25T02:29:25.561Z,72.18
2019-03-25T02:31:53.647Z,72.57
2019-03-25T02:34:24.642Z,72.51
2019-03-25T02:36:52.699Z,72.27
2019-03-25T02:39:23.109Z,71.65
2019-03-25T02:41:51.146Z,71.64
2019-03-25T02:44:19.255Z,71.87
2019-03-25T02:46:50.460Z,71.67
2019-03-25T02:49:20.149Z,71.41
2019-03-25T02:51:57.338Z,71.34
2019-03-25T02:54:25.462Z,71.10
2019-03-25T02:56:56.622Z,71.32
2019-03-25T02:59:25.056Z,71.32
2019-03-25T03:01:53.182Z,71.18
2019-03-25T03:04:21.334Z,71.49
2019-03-25T03:06:52.076Z,71.37
2019-03-25T03:09:20.172Z,71.67
2019-03-25T03:11:48.210Z,72.11
2019-03-25T03:14:16.585Z,72.32
2019-03-25T03:16:47.361Z,72.37
2019-03-25T03:19:15.715Z,72.68
2019-03-25T03:21:44.703Z,72.69
2019-03-25T03:24:12.841Z,72.49
2019-03-25T03:26:45.311Z,72.57
2019-03-25T03:29:13.518Z,72.77
2019-03-25T03:31:41.642Z,73.95
2019-03-25T03:34:09.734Z,74.45
2019-03-25T03:36:37.873Z,75.35
2019-03-25T03:39:11.113Z,75.55
2019-03-25T03:41:40.446Z,76.69
2019-03-25T03:44:11.315Z,77.99
2019-03-25T03:46:39.657Z,79.54
2019-03-25T03:49:10.617Z,80.37
2019-03-25T03:51:38.667Z,80.52
2019-03-25T03:54:06.712Z,79.82
2019-03-25T03:56:34.947Z,80.14
2019-03-25T03:59:03.872Z,80.66
2019-03-25T04:01:34.092Z,81.12
2019-03-25T04:04:02.314Z,80.75
2019-03-25T04:06:31.606Z,80.89
2019-03-25T04:09:01.147Z,81.53
2019-03-25T04:11:32.111Z,81.56
2019-03-25T04:14:03.562Z,81.15
2019-03-25T04:16:31.976Z,81.08
2019-03-25T04:19:00.485Z,81.40
2019-03-25T04:21:29.314Z,81.62
2019-03-25T04:23:57.778Z,81.71
2019-03-25T04:26:28.976Z,81.10
2019-03-25T04:29:00.017Z,80.96
2019-03-25T04:31:28.455Z,80.80
2019-03-25T04:33:57.182Z,80.82
2019-03-25T04:36:26.047Z,81.02
2019-03-25T04:38:58.272Z,80.99
2019-03-25T04:41:26.817Z,80.85
2019-03-25T04:44:06.773Z,80.63
2019-03-25T04:46:41.086Z,80.92
2019-03-25T04:49:15.335Z,81.19
2019-03-25T04:52:24.170Z,81.21
2019-03-25T04:54:59.252Z,81.42
2019-03-25T04:57:44.371Z,81.66
2019-03-25T05:00:28.569Z,81.63
2019-03-25T05:03:09.337Z,81.94
2019-03-25T05:06:02.245Z,82.00
2019-03-25T05:08:33.461Z,81.91
2019-03-25T05:11:30.062Z,81.83
2019-03-25T05:14:04.801Z,81.88
2019-03-25T05:16:42.252Z,82.05
2019-03-25T05:19:10.800Z,82.53
2019-03-25T05:21:39.304Z,82.52
2019-03-25T05:24:07.325Z,82.70
2019-03-25T05:26:36.281Z,82.68
2019-03-25T05:29:04.541Z,82.51
2019-03-25T05:31:32.626Z,82.34
2019-03-25T05:34:00.907Z,83.31
2019-03-25T05:36:29.645Z,83.13
2019-03-25T05:38:59.427Z,83.23
2019-03-25T05:41:27.725Z,82.97
2019-03-25T05:43:56.699Z,82.63
2019-03-25T05:46:25.209Z,81.70
2019-03-25T05:48:53.265Z,81.34
2019-03-25T05:51:21.797Z,81.28
2019-03-25T05:53:52.863Z,81.27
2019-03-25T05:59:26.217Z,80.29
2019-03-25T06:02:08.402Z,79.99
2019-03-25T06:04:45.552Z,77.91
2019-03-25T06:07:19.190Z,74.62
2019-03-25T06:09:50.830Z,72.55
2019-03-25T06:12:24.207Z,70.27
2019-03-25T06:14:56.755Z,68.61
2019-03-25T06:17:59.473Z,67.03
2019-03-25T06:20:45.787Z,65.75
2019-03-25T06:23:57.382Z,66.09
2019-03-25T06:26:28.882Z,64.67
2019-03-25T06:29:02.526Z,63.13
2019-03-25T06:31:32.886Z,61.69
2019-03-25T06:34:22.314Z,61.38
2019-03-25T06:36:50.599Z,61.77
2019-03-25T06:39:18.699Z,65.89
2019-03-25T06:41:47.136Z,69.96
2019-03-25T06:44:15.742Z,71.98
2019-03-25T06:46:44.095Z,73.61
2019-03-25T06:49:13.700Z,74.60
2019-03-25T06:51:45.200Z,75.53
2019-03-25T06:54:13.791Z,76.09
2019-03-25T06:56:42.573Z,75.30
2019-03-25T06:59:11.160Z,71.88
2019-03-25T07:01:39.573Z,70.26
2019-03-25T07:04:07.816Z,72.33
2019-03-25T07:06:41.454Z,72.38
2019-03-25T07:09:09.461Z,72.93
2019-03-25T07:11:38.407Z,74.08
2019-03-25T07:14:07.311Z,73.72
2019-03-25T07:16:43.589Z,71.20
2019-03-25T07:19:12.385Z,69.39
2019-03-25T07:21:40.646Z,69.40
2019-03-25T07:24:08.824Z,69.05
2019-03-25T07:26:37.005Z,70.22
2019-03-25T07:29:08.120Z,71.16
2019-03-25T07:31:38.489Z,72.22
2019-03-25T07:34:07.853Z,73.83
2019-03-25T07:36:39.682Z,73.15
2019-03-25T07:39:07.952Z,73.91
2019-03-25T07:41:35.885Z,74.52
2019-03-25T07:44:03.908Z,73.78
2019-03-25T07:46:31.826Z,74.40
2019-03-25T07:49:00.781Z,73.90
2019-03-25T07:51:28.797Z,73.91
2019-03-25T07:53:56.810Z,74.05
2019-03-25T07:56:24.758Z,75.02
2019-03-25T07:58:52.817Z,75.25
2019-03-25T08:01:22.385Z,75.92
2019-03-25T08:03:50.491Z,77.62
2019-03-25T08:06:18.436Z,78.44
2019-03-25T08:08:46.472Z,79.51
2019-03-25T08:11:16.725Z,80.57
2019-03-25T08:13:47.004Z,80.37
2019-03-25T08:16:15.085Z,80.12
2019-03-25T08:18:43.113Z,80.52
2019-03-25T08:21:11.075Z,80.51
2019-03-25T08:23:39.127Z,80.84
2019-03-25T08:26:07.522Z,81.23
2019-03-25T08:28:35.537Z,81.55
2019-03-25T08:31:03.624Z,81.76
2019-03-25T08:33:31.622Z,81.79
2019-03-25T08:35:59.663Z,81.73
2019-03-25T08:38:29.130Z,81.78
2019-03-25T08:40:57.165Z,81.32
2019-03-25T08:43:25.202Z,80.34
2019-03-25T08:45:53.745Z,79.79
2019-03-25T08:48:21.930Z,79.33
2019-03-25T08:50:49.910Z,77.84
2019-03-25T08:53:23.601Z,77.95
2019-03-25T08:55:56.887Z,77.91
2019-03-25T08:58:29.847Z,75.22
2019-03-25T09:00:59.116Z,75.37
2019-03-25T09:03:29.931Z,76.85
2019-03-25T09:06:01.031Z,77.95
2019-03-25T09:08:29.547Z,77.58
2019-03-25T09:11:09.502Z,76.94
2019-03-25T09:13:43.907Z,75.73
2019-03-25T09:16:13.240Z,75.46
2019-03-25T09:18:42.303Z,76.44
2019-03-25T09:21:13.652Z,75.50
2019-03-25T09:23:43.366Z,73.61
2019-03-25T09:26:12.537Z,74.37
2019-03-25T09:28:47.433Z,74.81
2019-03-25T09:31:19.851Z,75.40
2019-03-25T09:34:05.282Z,76.23
2019-03-25T09:36:34.577Z,77.02
2019-03-25T09:39:12.480Z,77.03
2019-03-25T09:41:41.489Z,76.73
2019-03-25T09:44:12.967Z,77.42
2019-03-25T09:47:07.025Z,78.84
2019-03-25T09:49:54.371Z,77.43
2019-03-25T09:52:22.870Z,76.00
2019-03-25T09:54:52.944Z,75.27
2019-03-25T09:57:21.112Z,75.55
2019-03-25T09:59:50.161Z,74.62
2019-03-25T10:02:27.207Z,74.75
2019-03-25T10:05:00.347Z,75.28
2019-03-25T10:07:36.826Z,74.35
2019-03-25T10:10:07.205Z,73.70
2019-03-25T10:12:37.096Z,73.35
2019-03-25T10:15:06.774Z,74.52
2019-03-25T10:17:37.918Z,73.27
2019-03-25T10:20:09.880Z,72.08
2019-03-25T10:22:39.868Z,71.63
2019-03-25T10:25:44.628Z,71.30
2019-03-25T10:28:48.767Z,73.05
2019-03-25T10:31:22.007Z,76.18
2019-03-25T10:33:50.448Z,77.13
2019-03-25T10:36:21.161Z,76.96
2019-03-25T10:38:51.330Z,75.70
2019-03-25T10:41:24.438Z,76.67
2019-03-25T10:43:56.562Z,76.94
2019-03-25T10:46:25.099Z,76.71
2019-03-25T10:48:53.592Z,77.20
2019-03-25T10:51:22.379Z,78.77
2019-03-25T10:53:50.845Z,79.92
2019-03-25T10:56:20.050Z,80.10
2019-03-25T10:58:57.804Z,81.03
2019-03-25T11:01:20.277Z,80.90
2019-03-25T11:03:51.273Z,80.13
2019-03-25T11:06:19.988Z,78.08
2019-03-25T11:08:48.676Z,77.67
2019-03-25T11:11:17.392Z,75.95
2019-03-25T11:13:45.833Z,75.60
2019-03-25T11:16:15.937Z,75.24
2019-03-25T11:18:44.017Z,76.99
2019-03-25T11:21:12.237Z,75.46
2019-03-25T11:23:42.757Z,75.20
2019-03-25T11:26:11.074Z,73.21
2019-03-25T11:28:40.615Z,70.85
2019-03-25T11:31:12.155Z,67.14
2019-03-25T11:33:40.458Z,65.53
2019-03-25T11:36:08.999Z,65.89
2019-03-25T11:38:37.121Z,66.89
2019-03-25T11:41:11.873Z,68.56
2019-03-25T11:43:40.237Z,70.48
2019-03-25T11:46:08.618Z,74.24
2019-03-25T11:48:41.157Z,75.14
2019-03-25T11:51:09.616Z,74.45
2019-03-25T11:53:39.656Z,75.47
2019-03-25T11:56:10.096Z,75.50
2019-03-25T11:58:38.771Z,76.26
2019-03-25T12:01:07.517Z,75.52
2019-03-25T12:03:35.976Z,73.45
2019-03-25T12:06:04.298Z,75.99
2019-03-25T12:08:32.676Z,72.05
2019-03-25T12:11:01.099Z,71.36
2019-03-25T12:13:29.948Z,70.32
2019-03-25T12:15:58.465Z,70.21
2019-03-25T12:18:28.138Z,69.43
2019-03-25T12:20:58.768Z,70.49
2019-03-25T12:23:30.397Z,69.53
2019-03-25T12:25:59.115Z,69.56
2019-03-25T12:28:28.684Z,69.69
2019-03-25T12:31:00.037Z,67.28
2019-03-25T12:33:28.296Z,66.82
2019-03-25T12:36:02.737Z,66.09
2019-03-25T12:38:33.953Z,69.34
2019-03-25T12:41:04.196Z,69.13
2019-03-25T12:43:32.755Z,67.88
2019-03-25T12:46:01.277Z,68.51
2019-03-25T12:48:32.057Z,70.58
2019-03-25T12:51:04.236Z,73.10
2019-03-25T12:53:33.097Z,73.65
2019-03-25T12:56:01.396Z,76.26
2019-03-25T12:58:35.916Z,76.92
2019-03-25T13:01:05.406Z,76.55
2019-03-25T13:03:33.629Z,75.77
2019-03-25T13:06:02.254Z,75.69
2019-03-25T13:08:33.443Z,72.76
2019-03-25T13:11:02.177Z,71.37
2019-03-25T13:13:31.956Z,71.31
2019-03-25T13:16:20.258Z,69.75
2019-03-25T13:18:55.347Z,70.42
2019-03-25T13:21:23.824Z,69.38
2019-03-25T13:23:52.331Z,69.37
2019-03-25T13:26:20.996Z,69.19
2019-03-25T13:29:01.105Z,68.29
2019-03-25T13:31:21.416Z,68.52
2019-03-25T13:33:51.482Z,68.86
2019-03-25T13:36:19.957Z,68.58
2019-03-25T13:38:49.084Z,67.43
2019-03-25T13:41:18.250Z,68.04
2019-03-25T13:43:50.480Z,68.33
2019-03-25T13:46:18.756Z,72.17
2019-03-25T13:48:47.217Z,74.29
2019-03-25T13:51:15.898Z,75.52
2019-03-25T13:53:44.021Z,76.56
2019-03-25T13:56:12.284Z,77.75
2019-03-25T13:58:40.496Z,77.01
2019-03-25T14:01:08.987Z,77.81
2019-03-25T14:03:37.338Z,75.74
2019-03-25T14:06:05.916Z,75.63
2019-03-25T14:08:34.151Z,75.11
2019-03-25T14:11:02.396Z,72.79
2019-03-25T14:13:30.917Z,72.69
2019-03-25T14:15:59.456Z,73.43
2019-03-25T14:18:27.745Z,72.51
2019-03-25T14:20:56.000Z,72.49
2019-03-25T14:23:25.618Z,72.11
2019-03-25T14:25:54.157Z,72.17
2019-03-25T14:28:22.757Z,71.42
2019-03-25T14:30:51.157Z,71.80
2019-03-25T14:33:20.297Z,72.71
2019-03-25T14:35:48.898Z,74.35
2019-03-25T14:38:17.380Z,75.22
2019-03-25T14:40:45.965Z,75.91
2019-03-25T14:43:14.337Z,76.73
2019-03-25T14:45:43.118Z,77.84
2019-03-25T14:48:11.776Z,77.64
2019-03-25T14:50:40.399Z,76.66
2019-03-25T14:53:08.917Z,75.69
2019-03-25T14:55:37.537Z,75.92
2019-03-25T14:58:06.176Z,75.65
2019-03-25T15:00:34.637Z,76.40
2019-03-25T15:03:03.397Z,74.89
2019-03-25T15:05:32.036Z,75.09
2019-03-25T15:08:00.761Z,74.80
2019-03-25T15:10:29.445Z,74.11
2019-03-25T15:12:58.102Z,74.59
2019-03-25T15:15:27.080Z,75.34
2019-03-25T15:17:55.737Z,73.53
2019-03-25T15:20:24.238Z,73.67
2019-03-25T15:22:52.817Z,74.03
2019-03-25T15:25:21.499Z,73.39
2019-03-25T15:27:50.148Z,72.91
2019-03-25T15:30:19.756Z,74.23
2019-03-25T15:32:48.278Z,74.36
2019-03-25T15:35:16.963Z,74.28
2019-03-25T15:37:45.717Z,74.16
2019-03-25T15:40:14.564Z,74.07
2019-03-25T15:42:43.606Z,74.91
2019-03-25T15:45:12.317Z,74.84
2019-03-25T15:48:55.775Z,73.62
2019-03-25T15:51:24.579Z,74.77
2019-03-25T15:54:45.105Z,73.25
2019-03-25T15:57:52.357Z,73.96
2019-03-25T16:00:17.927Z,73.82
2019-03-25T16:02:56.398Z,74.64
2019-03-25T16:05:25.599Z,74.36
2019-03-25T16:07:59.400Z,74.28
2019-03-25T16:10:28.177Z,74.62
2019-03-25T16:13:01.900Z,74.45
2019-03-25T16:15:42.557Z,74.08
2019-03-25T16:18:37.810Z,74.09
2019-03-25T16:21:29.577Z,75.16
2019-03-25T16:24:02.780Z,76.53
2019-03-25T16:26:39.544Z,78.55
2019-03-25T16:29:10.916Z,79.33
2019-03-25T16:31:42.176Z,79.78
2019-03-25T16:34:33.178Z,79.77
2019-03-25T16:37:04.898Z,78.90
2019-03-25T16:39:40.296Z,78.71
2019-03-25T16:42:09.396Z,78.04
2019-03-25T16:44:47.753Z,78.26
2019-03-25T16:47:16.799Z,78.26
2019-03-25T16:49:54.218Z,77.82
2019-03-25T16:52:25.011Z,77.55
2019-03-25T16:54:58.117Z,77.49
2019-03-25T16:57:35.196Z,77.19
2019-03-25T17:00:26.557Z,77.54
2019-03-25T17:02:48.591Z,77.44
2019-03-25T17:05:17.755Z,77.76
2019-03-25T17:08:29.497Z,77.38
2019-03-25T17:10:58.337Z,77.44
2019-03-25T17:13:26.976Z,77.10
2019-03-25T17:15:55.776Z,77.24
2019-03-25T17:18:24.437Z,77.83
2019-03-25T17:20:53.178Z,78.33
2019-03-25T17:23:21.858Z,78.31
2019-03-25T17:25:53.319Z,78.75
2019-03-25T17:28:21.396Z,79.04
2019-03-25T17:30:50.239Z,79.10
2019-03-25T17:33:18.998Z,79.00
2019-03-25T17:35:47.937Z,79.01
2019-03-25T17:38:16.770Z,78.74
2019-03-25T17:40:47.077Z,78.52
2019-03-25T17:43:19.071Z,78.68
2019-03-25T17:46:13.975Z,78.76
2019-03-25T17:50:44.844Z,78.42
2019-03-25T17:53:01.652Z,78.12
2019-03-25T17:55:52.607Z,78.09
2019-03-25T17:58:22.070Z,77.37
2019-03-25T18:01:14.526Z,77.69
2019-03-25T18:03:51.232Z,77.89
2019-03-25T18:06:16.899Z,77.81
2019-03-25T18:08:45.467Z,77.29
2019-03-25T18:11:13.996Z,77.38
2019-03-25T18:13:42.557Z,77.68
2019-03-25T18:16:12.307Z,77.52
2019-03-25T18:18:41.857Z,77.63
2019-03-25T18:21:10.521Z,77.63
2019-03-25T18:23:40.957Z,77.40
2019-03-25T18:26:10.729Z,77.41
2019-03-25T18:28:39.696Z,77.51
2019-03-25T18:31:09.332Z,77.24
2019-03-25T18:33:38.126Z,77.14
2019-03-25T18:36:06.786Z,77.26
2019-03-25T18:38:37.407Z,76.57
2019-03-25T18:41:06.117Z,77.02
2019-03-25T18:43:34.731Z,76.53
2019-03-25T18:46:04.382Z,76.36
2019-03-25T18:48:32.870Z,76.50
2019-03-25T18:51:01.432Z,76.07
2019-03-25T18:53:29.983Z,75.93
2019-03-25T18:55:58.611Z,75.98
2019-03-25T18:58:27.173Z,75.93
2019-03-25T19:00:55.736Z,75.80
2019-03-25T19:03:24.760Z,75.71
2019-03-25T19:05:53.421Z,75.44
2019-03-25T19:08:22.118Z,75.83
2019-03-25T19:10:51.092Z,75.38
2019-03-25T19:13:19.604Z,75.80
2019-03-25T19:15:48.289Z,76.03
2019-03-25T19:18:16.863Z,76.34
2019-03-25T19:20:45.441Z,76.18
2019-03-25T19:23:13.957Z,76.52
2019-03-25T19:25:42.593Z,76.51
2019-03-25T19:28:11.534Z,76.46
2019-03-25T19:30:42.201Z,76.34
2019-03-25T19:33:11.746Z,76.15
2019-03-25T19:35:40.868Z,76.30
2019-03-25T19:38:10.154Z,76.51
2019-03-25T19:40:38.759Z,76.60
2019-03-25T19:43:07.404Z,76.92
2019-03-25T19:45:35.938Z,77.31
2019-03-25T19:48:04.499Z,77.45
2019-03-25T19:50:33.659Z,77.60
2019-03-25T19:53:02.158Z,77.87
2019-03-25T19:55:31.301Z,77.99
2019-03-25T19:57:59.825Z,78.26
2019-03-25T20:00:39.278Z,78.44
2019-03-25T20:03:07.851Z,78.23
2019-03-25T20:05:36.538Z,78.48
2019-03-25T20:08:05.107Z,78.79
2019-03-25T20:10:34.628Z,78.88
2019-03-25T20:13:03.442Z,79.13
2019-03-25T20:15:45.019Z,79.24
2019-03-25T20:18:02.476Z,79.01
2019-03-25T20:20:31.060Z,78.86
2019-03-25T20:22:59.651Z,78.78
2019-03-25T20:25:28.146Z,78.80
2019-03-25T20:27:56.688Z,79.05
2019-03-25T20:30:25.203Z,79.00
2019-03-25T20:32:54.867Z,79.15
2019-03-25T20:35:23.376Z,79.14
2019-03-25T20:37:52.076Z,79.21
2019-03-25T20:40:20.760Z,79.05
2019-03-25T20:42:49.510Z,79.26
2019-03-25T20:45:18.578Z,79.22
2019-03-25T20:47:47.468Z,79.31
2019-03-25T20:50:15.997Z,79.45
2019-03-25T20:52:44.536Z,79.61
2019-03-25T20:55:13.134Z,79.47
2019-03-25T20:57:41.917Z,79.46
2019-03-25T21:00:11.381Z,79.55
2019-03-25T21:02:45.204Z,79.78
2019-03-25T21:05:10.327Z,79.67
2019-03-25T21:07:40.004Z,79.62
2019-03-25T21:10:08.935Z,79.65
2019-03-25T21:12:38.672Z,79.58
2019-03-25T21:15:08.142Z,79.65
2019-03-25T21:17:36.737Z,79.65
2019-03-25T21:20:05.985Z,79.91
2019-03-25T21:22:34.517Z,80.09
2019-03-25T21:25:03.013Z,80.61
2019-03-25T21:27:31.568Z,80.63
2019-03-25T21:30:00.040Z,80.38
2019-03-25T21:32:28.612Z,80.24
2019-03-25T21:34:57.120Z,80.46
2019-03-25T21:37:25.729Z,80.68
2019-03-25T21:39:54.187Z,80.71
2019-03-25T21:42:22.671Z,80.82
2019-03-25T21:44:51.119Z,80.64
2019-03-25T21:47:19.524Z,80.80
2019-03-25T21:49:47.982Z,80.83
2019-03-25T21:52:16.221Z,80.80
2019-03-25T21:54:44.347Z,80.62
2019-03-25T21:57:12.688Z,80.55
2019-03-25T21:59:41.123Z,80.89
2019-03-25T22:02:09.256Z,81.37
2019-03-25T22:04:37.233Z,81.12
2019-03-25T22:07:05.817Z,81.12
2019-03-25T22:09:34.336Z,80.95
2019-03-25T22:12:02.917Z,80.92
2019-03-25T22:14:31.346Z,81.04
2019-03-25T22:16:59.927Z,81.19
2019-03-25T22:19:28.442Z,81.26
2019-03-25T22:21:59.516Z,81.09
2019-03-25T22:24:27.994Z,81.08
2019-03-25T22:26:56.496Z,81.23
2019-03-25T22:29:25.380Z,81.48
2019-03-25T22:31:57.086Z,81.29
2019-03-25T22:34:27.851Z,81.23
2019-03-25T22:36:56.211Z,81.65
2019-03-25T22:39:24.802Z,81.52
2019-03-25T22:41:55.018Z,81.46
2019-03-25T22:44:24.526Z,81.68
2019-03-25T22:46:53.110Z,82.30
2019-03-25T22:49:21.557Z,82.52
2019-03-25T22:51:49.756Z,82.37
2019-03-25T22:54:17.995Z,81.95
2019-03-25T22:56:46.764Z,81.83
2019-03-25T22:59:15.585Z,82.20
2019-03-25T23:01:44.316Z,82.36
2019-03-25T23:04:13.267Z,82.34
2019-03-25T23:06:41.707Z,82.70
2019-03-25T23:09:11.622Z,82.68
2019-03-25T23:11:40.914Z,82.69
2019-03-25T23:14:09.396Z,82.70
2019-03-25T23:16:37.586Z,82.45
2019-03-25T23:19:06.311Z,82.54
2019-03-25T23:21:34.526Z,82.73
2019-03-25T23:24:02.910Z,82.68
2019-03-25T23:26:31.546Z,82.33
2019-03-25T23:28:59.867Z,82.53
2019-03-25T23:31:28.171Z,81.90
2019-03-25T23:33:57.436Z,81.82
2019-03-25T23:36:25.766Z,81.78
2019-03-25T23:38:55.051Z,81.43
2019-03-25T23:41:23.334Z,81.55
2019-03-25T23:43:58.378Z,81.46
2019-03-25T23:46:28.917Z,81.23
2019-03-25T23:48:57.107Z,81.13
2019-03-25T23:51:25.422Z,80.77
2019-03-25T23:54:10.987Z,80.82
2019-03-25T23:56:39.415Z,80.79
2019-03-25T23:59:07.566Z,80.72
